createdAt,value
2022-12-31T00:00:08.977Z,37.53
2022-12-31T00:02:36.338Z,37.67
2022-12-31T00:05:04.560Z,36.38
2022-12-31T00:09:57.627Z,36.80
2022-12-31T00:12:25.525Z,35.17
2022-12-31T00:14:52.198Z,34.72
2022-12-31T00:17:19.052Z,36.53
2022-12-31T00:19:45.677Z,35.95
2022-12-31T00:22:12.354Z,37.67
2022-12-31T00:24:39.023Z,36.67
2022-12-31T00:27:05.654Z,40.13
2022-12-31T00:29:32.286Z,48.47
2022-12-31T00:31:58.969Z,48.60
2022-12-31T00:34:25.680Z,53.58
2022-12-31T00:36:53.221Z,59.00
2022-12-31T00:39:20.007Z,53.38
2022-12-31T00:41:46.863Z,58.05
2022-12-31T00:44:14.151Z,56.33
2022-12-31T00:49:07.151Z,68.53
2022-12-31T00:51:33.837Z,68.20
2022-12-31T00:54:00.572Z,64.55
2022-12-31T00:56:29.500Z,62.22
2022-12-31T00:58:56.577Z,58.63
2022-12-31T01:01:27.946Z,56.40
2022-12-31T01:03:58.609Z,60.83
2022-12-31T01:06:25.307Z,56.22
2022-12-31T01:08:53.726Z,58.35
2022-12-31T01:11:22.301Z,57.97
2022-12-31T01:14:00.198Z,61.53
2022-12-31T01:16:32.804Z,62.40
2022-12-31T01:19:01.391Z,63.85
2022-12-31T01:21:28.646Z,61.15
2022-12-31T01:23:55.348Z,62.25
2022-12-31T01:26:22.073Z,64.93
2022-12-31T01:28:48.849Z,65.93
2022-12-31T01:31:17.808Z,63.70
2022-12-31T01:33:45.533Z,61.97
2022-12-31T01:36:25.068Z,53.35
2022-12-31T01:38:53.030Z,56.15
2022-12-31T01:41:23.278Z,52.92
2022-12-31T01:43:54.801Z,53.65
2022-12-31T01:46:33.996Z,53.75
2022-12-31T01:49:09.441Z,54.88
2022-12-31T01:51:37.649Z,58.95
2022-12-31T01:54:09.343Z,54.58
2022-12-31T01:56:39.324Z,52.63
2022-12-31T01:59:09.963Z,52.53
2022-12-31T02:01:38.546Z,51.75
2022-12-31T02:04:11.921Z,51.25
2022-12-31T02:06:46.919Z,52.97
2022-12-31T02:09:13.971Z,54.17
2022-12-31T02:11:40.731Z,52.67
2022-12-31T02:14:18.714Z,53.15
2022-12-31T02:17:10.835Z,54.05
2022-12-31T02:20:00.507Z,53.85
2022-12-31T02:22:57.944Z,55.53
2022-12-31T02:25:43.126Z,52.83
2022-12-31T02:28:28.295Z,55.03
2022-12-31T02:31:07.555Z,52.03
2022-12-31T02:33:41.701Z,53.10
2022-12-31T02:36:19.821Z,52.42
2022-12-31T02:38:48.678Z,51.67
2022-12-31T02:41:36.795Z,49.03
2022-12-31T02:44:27.249Z,48.22
2022-12-31T02:47:09.120Z,47.28
2022-12-31T02:49:53.766Z,47.00
2022-12-31T02:52:42.237Z,45.83
2022-12-31T02:55:18.143Z,45.47
2022-12-31T02:58:06.003Z,43.88
2022-12-31T03:00:53.357Z,41.65
2022-12-31T03:03:21.589Z,45.95
2022-12-31T03:05:50.062Z,47.20
2022-12-31T03:08:24.865Z,45.33
2022-12-31T03:10:52.210Z,47.15
2022-12-31T03:13:18.816Z,47.97
2022-12-31T03:15:45.460Z,49.95
2022-12-31T03:18:15.581Z,45.97
2022-12-31T03:21:06.917Z,49.15
2022-12-31T03:23:42.815Z,48.75
2022-12-31T03:26:11.470Z,53.70
2022-12-31T03:28:41.064Z,49.47
2022-12-31T03:31:08.262Z,68.82
2022-12-31T03:33:41.089Z,68.05
2022-12-31T03:36:11.548Z,79.07
2022-12-31T03:38:38.498Z,58.47
2022-12-31T03:41:05.631Z,56.90
2022-12-31T03:43:32.321Z,61.53
2022-12-31T03:46:01.510Z,61.67
2022-12-31T03:48:28.346Z,61.88
2022-12-31T03:50:55.340Z,57.00
2022-12-31T03:53:23.251Z,59.53
2022-12-31T03:55:53.469Z,61.35
2022-12-31T03:58:20.457Z,61.72
2022-12-31T04:00:47.118Z,58.85
2022-12-31T04:03:14.211Z,54.70
2022-12-31T04:05:41.295Z,58.92
2022-12-31T04:08:07.990Z,55.72
2022-12-31T04:10:34.733Z,54.05
2022-12-31T04:13:04.433Z,52.85
2022-12-31T04:15:31.212Z,59.92
2022-12-31T04:17:58.446Z,60.47
2022-12-31T04:20:25.243Z,59.00
2022-12-31T04:22:51.871Z,65.18
2022-12-31T04:25:18.657Z,61.92
2022-12-31T04:27:45.407Z,64.00
2022-12-31T04:30:13.280Z,63.63
2022-12-31T04:32:40.160Z,64.30
2022-12-31T04:35:07.515Z,62.22
2022-12-31T04:37:34.121Z,61.50
2022-12-31T04:40:05.906Z,56.47
2022-12-31T04:42:33.831Z,55.22
2022-12-31T04:45:00.616Z,57.85
2022-12-31T04:47:27.319Z,57.33
2022-12-31T04:49:54.023Z,57.67
2022-12-31T04:52:20.800Z,55.42
2022-12-31T04:54:47.451Z,54.30
2022-12-31T04:57:14.143Z,53.03
2022-12-31T04:59:40.881Z,53.10
2022-12-31T05:02:07.653Z,53.58
2022-12-31T05:04:34.446Z,54.25
2022-12-31T05:07:01.053Z,55.13
2022-12-31T05:09:28.436Z,55.92
2022-12-31T05:11:55.132Z,53.85
2022-12-31T05:14:21.839Z,54.63
2022-12-31T05:16:48.557Z,54.00
2022-12-31T05:19:15.414Z,54.53
2022-12-31T05:21:41.992Z,57.47
2022-12-31T05:24:08.874Z,54.85
2022-12-31T05:26:35.575Z,54.95
2022-12-31T05:29:02.147Z,52.53
2022-12-31T05:31:28.764Z,51.45
2022-12-31T05:33:55.387Z,46.80
2022-12-31T05:36:21.981Z,48.70
2022-12-31T05:38:48.578Z,51.78
2022-12-31T05:41:15.269Z,53.63
2022-12-31T05:43:41.938Z,54.30
2022-12-31T05:46:08.940Z,56.53
2022-12-31T05:48:37.053Z,60.92
2022-12-31T05:51:03.761Z,61.33
2022-12-31T05:53:30.440Z,70.15
2022-12-31T05:55:57.032Z,73.28
2022-12-31T05:58:23.768Z,65.35
2022-12-31T06:00:51.869Z,65.60
2022-12-31T06:03:18.756Z,60.25
2022-12-31T06:05:45.464Z,53.47
2022-12-31T06:08:12.275Z,55.10
2022-12-31T06:10:39.783Z,56.42
2022-12-31T06:13:06.756Z,52.25
2022-12-31T06:15:33.615Z,58.75
2022-12-31T06:18:00.371Z,58.55
2022-12-31T06:20:27.115Z,52.40
2022-12-31T06:22:53.898Z,53.10
2022-12-31T06:25:20.651Z,48.92
2022-12-31T06:27:47.365Z,45.50
2022-12-31T06:30:14.554Z,47.88
2022-12-31T06:32:42.223Z,47.42
2022-12-31T06:35:09.320Z,45.20
2022-12-31T06:37:36.037Z,49.38
2022-12-31T06:40:03.278Z,46.58
2022-12-31T06:42:31.135Z,46.05
2022-12-31T06:44:59.196Z,47.38
2022-12-31T06:47:26.434Z,42.30
2022-12-31T06:49:53.313Z,42.70
2022-12-31T06:52:20.553Z,42.58
2022-12-31T06:54:47.679Z,38.25
2022-12-31T06:57:14.592Z,39.22
2022-12-31T06:59:41.573Z,41.85
2022-12-31T07:02:21.325Z,43.75
2022-12-31T07:05:02.394Z,47.58
2022-12-31T07:07:48.358Z,47.35
2022-12-31T07:10:29.976Z,47.75
2022-12-31T07:13:02.940Z,48.83
2022-12-31T07:15:53.959Z,47.03
2022-12-31T07:19:13.267Z,49.05
2022-12-31T07:21:41.535Z,48.28
2022-12-31T07:24:10.137Z,47.88
2022-12-31T07:26:54.287Z,42.80
2022-12-31T07:29:34.753Z,43.28
2022-12-31T07:32:19.698Z,42.20
2022-12-31T07:34:55.698Z,44.65
2022-12-31T07:37:37.712Z,44.67
2022-12-31T07:40:24.025Z,47.15
2022-12-31T07:43:15.113Z,43.75
2022-12-31T07:46:15.316Z,45.28
2022-12-31T07:48:42.139Z,47.40
2022-12-31T07:51:10.976Z,50.53
2022-12-31T07:53:38.205Z,51.90
2022-12-31T07:56:07.203Z,48.97
2022-12-31T07:59:02.658Z,45.05
2022-12-31T08:01:35.958Z,42.60
2022-12-31T08:04:09.614Z,43.30
2022-12-31T08:06:48.385Z,44.17
2022-12-31T08:09:46.113Z,45.40
2022-12-31T08:12:14.219Z,44.45
2022-12-31T08:14:47.062Z,49.38
2022-12-31T08:17:15.811Z,51.60
2022-12-31T08:19:43.149Z,52.67
2022-12-31T08:22:19.670Z,52.65
2022-12-31T08:25:13.380Z,50.38
2022-12-31T08:28:07.819Z,55.55
2022-12-31T08:30:41.725Z,55.70
2022-12-31T08:33:26.322Z,59.35
2022-12-31T08:36:17.328Z,56.35
2022-12-31T08:38:57.052Z,50.78
2022-12-31T08:41:42.712Z,51.28
2022-12-31T08:44:28.593Z,51.03
2022-12-31T08:47:40.361Z,52.58
2022-12-31T08:50:13.005Z,48.85
2022-12-31T08:52:39.742Z,46.28
2022-12-31T08:55:06.953Z,47.88
2022-12-31T08:58:06.250Z,46.75
2022-12-31T09:00:35.127Z,46.50
2022-12-31T09:03:07.730Z,45.63
2022-12-31T09:06:02.482Z,46.45
2022-12-31T09:08:44.241Z,49.13
2022-12-31T09:11:22.863Z,48.90
2022-12-31T09:14:08.453Z,50.58
2022-12-31T09:17:04.709Z,49.20
2022-12-31T09:19:31.670Z,44.35
2022-12-31T09:21:58.869Z,47.92
2022-12-31T09:24:25.969Z,44.20
2022-12-31T09:27:27.218Z,44.28
2022-12-31T09:30:13.549Z,43.67
2022-12-31T09:32:49.202Z,42.58
2022-12-31T09:35:29.864Z,38.55
2022-12-31T09:38:07.905Z,39.80
2022-12-31T09:40:54.048Z,36.63
2022-12-31T09:44:00.873Z,34.08
2022-12-31T09:46:43.424Z,33.97
2022-12-31T09:49:28.264Z,31.95
2022-12-31T09:52:38.482Z,31.70
2022-12-31T09:55:17.201Z,34.35
2022-12-31T09:58:24.940Z,35.97
2022-12-31T10:01:29.319Z,35.40
2022-12-31T10:04:17.607Z,35.97
2022-12-31T10:07:14.518Z,37.05
2022-12-31T10:10:03.716Z,39.00
2022-12-31T10:12:55.152Z,38.60
2022-12-31T10:15:33.934Z,39.92
2022-12-31T10:18:06.200Z,38.50
2022-12-31T10:23:47.591Z,41.10
2022-12-31T10:26:37.654Z,40.75
2022-12-31T10:29:25.895Z,41.53
2022-12-31T10:32:05.955Z,45.35
2022-12-31T10:34:55.435Z,40.97
2022-12-31T10:37:28.053Z,42.08
2022-12-31T10:40:21.413Z,39.80
2022-12-31T10:42:59.798Z,39.30
2022-12-31T10:45:44.797Z,38.38
2022-12-31T10:48:14.372Z,37.20
2022-12-31T10:50:59.715Z,40.75
2022-12-31T10:53:26.367Z,38.25
2022-12-31T10:55:58.977Z,37.17
2022-12-31T10:58:45.920Z,37.88
2022-12-31T11:01:33.135Z,36.58
2022-12-31T11:04:36.282Z,37.70
2022-12-31T11:07:41.443Z,36.50
2022-12-31T11:10:32.715Z,36.75
2022-12-31T11:13:22.123Z,35.08
2022-12-31T11:16:19.567Z,34.80
2022-12-31T11:19:07.062Z,35.58
2022-12-31T11:22:11.291Z,34.13
2022-12-31T11:24:47.414Z,33.67
2022-12-31T11:27:19.960Z,32.35
2022-12-31T11:29:56.041Z,32.67
2022-12-31T11:32:29.250Z,30.73
2022-12-31T11:35:25.587Z,29.83
2022-12-31T11:38:00.739Z,31.50
2022-12-31T11:40:54.341Z,32.75
2022-12-31T11:43:27.413Z,33.80
2022-12-31T11:46:16.958Z,33.08
2022-12-31T11:49:26.481Z,32.90
2022-12-31T11:52:10.695Z,32.05
2022-12-31T11:54:46.325Z,32.38
2022-12-31T11:57:21.772Z,33.38
2022-12-31T11:59:48.487Z,33.45
2022-12-31T12:02:26.770Z,32.90
2022-12-31T12:04:56.862Z,33.00
2022-12-31T12:07:24.226Z,32.13
2022-12-31T12:09:54.532Z,32.38
2022-12-31T12:12:21.751Z,31.98
2022-12-31T12:14:55.055Z,29.42
2022-12-31T12:17:33.001Z,30.27
2022-12-31T12:20:18.187Z,29.13
2022-12-31T12:22:54.378Z,28.35
2022-12-31T12:25:24.417Z,31.42
2022-12-31T12:27:52.064Z,29.30
2022-12-31T12:30:21.493Z,29.13
2022-12-31T12:33:04.867Z,28.15
2022-12-31T12:35:34.123Z,26.27
2022-12-31T12:38:06.111Z,26.48
2022-12-31T12:40:34.639Z,24.35
2022-12-31T12:43:02.746Z,24.30
2022-12-31T12:45:51.718Z,23.98
2022-12-31T12:48:41.242Z,22.60
2022-12-31T12:51:36.640Z,22.80
2022-12-31T12:54:25.661Z,23.27
2022-12-31T12:57:17.658Z,23.33
2022-12-31T12:59:57.573Z,23.15
2022-12-31T13:02:27.200Z,20.15
2022-12-31T13:05:28.386Z,19.10
2022-12-31T13:08:28.009Z,18.08
2022-12-31T13:11:33.300Z,19.55
2022-12-31T13:14:14.862Z,19.85
2022-12-31T13:17:14.344Z,20.52
2022-12-31T13:20:13.007Z,19.60
2022-12-31T13:22:52.369Z,15.88
2022-12-31T13:25:52.568Z,15.13
2022-12-31T13:28:19.867Z,16.55
2022-12-31T13:30:52.327Z,16.17
2022-12-31T13:33:27.050Z,16.63
2022-12-31T13:36:04.864Z,14.40
2022-12-31T13:38:42.129Z,13.60
2022-12-31T13:41:30.524Z,15.07
2022-12-31T13:44:08.904Z,12.45
2022-12-31T13:47:07.050Z,12.40
2022-12-31T13:49:57.774Z,10.88
2022-12-31T13:52:39.950Z,12.52
2022-12-31T13:55:24.207Z,12.32
2022-12-31T13:58:01.823Z,11.43
2022-12-31T14:00:41.022Z,12.13
2022-12-31T14:03:21.599Z,11.40
2022-12-31T14:05:48.159Z,10.98
2022-12-31T14:08:15.949Z,11.23
2022-12-31T14:10:45.679Z,12.50
2022-12-31T14:13:34.602Z,13.50
2022-12-31T14:16:01.659Z,16.75
2022-12-31T14:18:54.453Z,16.50
2022-12-31T14:21:48.710Z,13.00
2022-12-31T14:24:32.907Z,13.70
2022-12-31T14:27:05.498Z,13.35
2022-12-31T14:29:35.516Z,12.65
2022-12-31T14:32:10.031Z,14.10
2022-12-31T14:34:45.424Z,13.85
2022-12-31T14:37:17.614Z,14.63
2022-12-31T14:39:59.384Z,15.07
2022-12-31T14:42:53.259Z,16.17
2022-12-31T14:45:38.602Z,16.83
2022-12-31T14:48:21.547Z,20.67
2022-12-31T14:50:49.311Z,22.48
2022-12-31T14:53:24.966Z,25.98
2022-12-31T14:55:59.420Z,26.88
2022-12-31T14:58:35.799Z,29.73
2022-12-31T15:01:19.074Z,29.95
2022-12-31T15:03:46.496Z,31.88
2022-12-31T15:06:31.797Z,31.02
2022-12-31T15:09:08.220Z,33.42
2022-12-31T15:11:46.253Z,35.63
2022-12-31T15:14:50.592Z,35.13
2022-12-31T15:17:39.188Z,34.58
2022-12-31T15:20:27.490Z,36.05
2022-12-31T15:22:54.840Z,34.00
2022-12-31T15:25:38.424Z,37.42
2022-12-31T15:28:28.816Z,37.55
2022-12-31T15:31:02.097Z,35.97
2022-12-31T15:33:37.845Z,34.13
2022-12-31T15:36:21.373Z,35.40
2022-12-31T15:38:49.541Z,36.72
2022-12-31T15:41:19.248Z,35.95
2022-12-31T15:44:01.898Z,34.72
2022-12-31T15:46:37.104Z,35.30
2022-12-31T15:49:25.977Z,35.22
2022-12-31T15:52:08.535Z,38.50
2022-12-31T15:54:56.961Z,38.30
2022-12-31T15:57:32.947Z,37.80
2022-12-31T16:00:04.807Z,39.22
2022-12-31T16:02:31.782Z,41.58
2022-12-31T16:04:58.763Z,40.83
2022-12-31T16:07:27.442Z,37.90
2022-12-31T16:09:57.362Z,42.95
2022-12-31T16:12:32.698Z,44.83
2022-12-31T16:15:01.681Z,43.15
2022-12-31T16:17:34.065Z,46.05
2022-12-31T16:20:20.025Z,44.70
2022-12-31T16:22:56.220Z,43.35
2022-12-31T16:25:33.125Z,46.50
2022-12-31T16:28:02.645Z,37.50
2022-12-31T16:30:31.284Z,37.92
2022-12-31T16:33:04.479Z,38.30
2022-12-31T16:35:33.101Z,41.53
2022-12-31T16:38:19.211Z,35.67
2022-12-31T16:41:01.047Z,31.35
2022-12-31T16:43:37.329Z,30.75
2022-12-31T16:46:27.595Z,31.27
2022-12-31T16:48:57.050Z,29.73
2022-12-31T16:51:27.604Z,24.42
2022-12-31T16:53:54.885Z,24.58
2022-12-31T16:56:32.127Z,23.52
2022-12-31T16:59:03.818Z,24.27
2022-12-31T17:01:34.292Z,21.08
2022-12-31T17:04:10.487Z,21.10
2022-12-31T17:06:37.207Z,17.63
2022-12-31T17:09:12.843Z,20.60
2022-12-31T17:11:50.777Z,21.30
2022-12-31T17:14:20.448Z,25.02
2022-12-31T17:17:06.842Z,27.90
2022-12-31T17:19:47.537Z,26.85
2022-12-31T17:22:32.806Z,26.23
2022-12-31T17:25:06.327Z,25.02
2022-12-31T17:27:34.499Z,26.48
2022-12-31T17:30:35.682Z,26.08
2022-12-31T17:33:28.799Z,26.42
2022-12-31T17:36:15.660Z,22.30
2022-12-31T17:38:42.846Z,22.90
2022-12-31T17:41:17.253Z,22.05
2022-12-31T17:43:44.136Z,23.60
2022-12-31T17:46:16.401Z,21.27
2022-12-31T17:51:11.981Z,21.83
2022-12-31T17:53:38.653Z,24.33
2022-12-31T17:56:07.632Z,23.42
2022-12-31T17:58:54.086Z,23.85
2022-12-31T18:01:22.952Z,23.25
2022-12-31T18:03:50.310Z,22.92
2022-12-31T18:06:19.238Z,26.45
2022-12-31T18:08:46.055Z,24.58
2022-12-31T18:11:19.817Z,27.00
2022-12-31T18:13:47.229Z,38.53
2022-12-31T18:16:14.563Z,24.60
2022-12-31T18:18:42.375Z,32.55
2022-12-31T18:21:26.830Z,31.92
2022-12-31T18:26:21.746Z,44.67
2022-12-31T18:28:49.085Z,48.08
2022-12-31T18:31:24.837Z,37.20
2022-12-31T18:33:53.179Z,42.33
2022-12-31T18:36:22.519Z,39.33
2022-12-31T18:38:49.210Z,37.30
2022-12-31T18:41:23.534Z,34.80
2022-12-31T18:43:50.903Z,29.00
2022-12-31T18:46:20.021Z,25.35
2022-12-31T18:48:47.026Z,23.45
2022-12-31T18:51:31.243Z,22.95
2022-12-31T18:54:00.038Z,23.77
2022-12-31T18:56:27.634Z,23.10
2022-12-31T18:58:54.543Z,25.67
2022-12-31T19:01:27.138Z,26.45
2022-12-31T19:03:56.552Z,27.35
2022-12-31T19:06:23.679Z,26.95
2022-12-31T19:08:50.461Z,28.95
2022-12-31T19:11:17.611Z,28.45
2022-12-31T19:13:44.266Z,30.42
2022-12-31T19:16:11.513Z,30.58
2022-12-31T19:18:38.189Z,32.40
2022-12-31T19:21:05.649Z,34.17
2022-12-31T19:23:32.987Z,36.78
2022-12-31T19:25:59.613Z,30.52
2022-12-31T19:28:27.818Z,32.92
2022-12-31T19:30:54.721Z,39.58
2022-12-31T19:33:21.394Z,44.00
2022-12-31T19:35:48.354Z,39.17
2022-12-31T19:38:19.079Z,31.85
2022-12-31T19:40:46.996Z,28.48
2022-12-31T19:43:15.762Z,34.03
2022-12-31T19:45:43.793Z,29.25
2022-12-31T19:48:25.792Z,34.28
2022-12-31T19:50:57.193Z,35.90
2022-12-31T19:53:26.067Z,38.58
2022-12-31T19:55:53.613Z,43.83
2022-12-31T19:58:26.142Z,40.83
2022-12-31T20:00:58.445Z,46.95
2022-12-31T20:03:29.104Z,55.67
2022-12-31T20:06:08.196Z,51.20
2022-12-31T20:08:36.959Z,46.65
2022-12-31T20:11:15.566Z,48.35
2022-12-31T20:13:42.920Z,49.28
2022-12-31T20:16:15.740Z,48.00
2022-12-31T20:18:44.314Z,49.35
2022-12-31T20:21:13.255Z,44.45
2022-12-31T20:23:40.414Z,34.42
2022-12-31T20:26:07.075Z,37.85
2022-12-31T20:28:33.741Z,44.28
2022-12-31T20:31:14.551Z,43.90
2022-12-31T20:33:41.636Z,48.40
2022-12-31T20:36:11.581Z,42.30
2022-12-31T20:38:38.658Z,42.00
2022-12-31T20:41:10.234Z,42.08
2022-12-31T20:43:37.498Z,44.05
2022-12-31T20:46:15.547Z,43.05
2022-12-31T20:48:43.989Z,58.92
2022-12-31T20:51:11.667Z,48.70
2022-12-31T20:53:38.552Z,46.80
2022-12-31T20:56:09.559Z,47.78
2022-12-31T20:58:36.659Z,46.65
2022-12-31T21:01:07.048Z,46.50
2022-12-31T21:06:25.663Z,46.75
2022-12-31T21:08:52.558Z,46.45
2022-12-31T21:11:37.652Z,49.35
2022-12-31T21:14:04.511Z,46.72
2022-12-31T21:16:31.854Z,87.57
2022-12-31T21:18:58.795Z,97.93
2022-12-31T21:21:25.549Z,96.22
2022-12-31T21:23:52.445Z,84.07
2022-12-31T21:26:19.584Z,66.68
2022-12-31T21:28:46.394Z,68.35
2022-12-31T21:31:14.470Z,71.03
2022-12-31T21:33:45.504Z,69.40
2022-12-31T21:36:12.622Z,67.75
2022-12-31T21:38:39.682Z,72.57
2022-12-31T21:41:08.526Z,70.70
2022-12-31T21:43:35.323Z,69.55
2022-12-31T21:46:04.192Z,68.65
2022-12-31T21:48:31.351Z,70.85
2022-12-31T21:51:10.001Z,64.75
2022-12-31T21:53:37.660Z,63.53
2022-12-31T21:56:08.285Z,63.97
2022-12-31T21:58:36.485Z,59.40
2022-12-31T22:01:22.057Z,62.53
2022-12-31T22:03:48.802Z,58.38
2022-12-31T22:06:22.372Z,98.05
2022-12-31T22:08:59.390Z,75.43
2022-12-31T22:11:28.244Z,82.38
2022-12-31T22:13:55.361Z,229.63
2022-12-31T22:16:22.724Z,197.15
2022-12-31T22:18:49.871Z,113.57
2022-12-31T22:21:21.686Z,104.82
2022-12-31T22:23:50.868Z,77.35
2022-12-31T22:26:20.019Z,68.20
2022-12-31T22:28:47.143Z,137.50
2022-12-31T22:31:19.593Z,145.07
2022-12-31T22:33:47.503Z,90.63
2022-12-31T22:36:18.073Z,68.55
2022-12-31T22:38:45.512Z,71.18
2022-12-31T22:41:15.143Z,72.63
2022-12-31T22:43:44.643Z,71.72
2022-12-31T22:46:12.910Z,61.70
2022-12-31T22:48:40.543Z,58.85
2022-12-31T22:51:09.978Z,61.22
2022-12-31T22:53:38.615Z,61.72
2022-12-31T22:56:06.079Z,73.43
2022-12-31T22:58:32.862Z,78.63
2022-12-31T23:00:59.628Z,79.63
2022-12-31T23:03:26.338Z,73.32
2022-12-31T23:05:53.050Z,64.45
2022-12-31T23:08:23.355Z,59.75
2022-12-31T23:11:01.655Z,63.65
2022-12-31T23:13:50.890Z,73.18
2022-12-31T23:16:36.970Z,73.13
2022-12-31T23:19:22.577Z,78.05
2022-12-31T23:22:07.792Z,90.47
2022-12-31T23:24:34.666Z,85.35
2022-12-31T23:27:01.412Z,76.10
2022-12-31T23:29:28.212Z,79.00
2022-12-31T23:31:54.959Z,75.20
2022-12-31T23:34:21.799Z,85.10
2022-12-31T23:36:48.544Z,80.32
2022-12-31T23:39:15.485Z,87.70
2022-12-31T23:41:42.260Z,79.60
2022-12-31T23:44:11.981Z,81.68
2022-12-31T23:46:39.816Z,82.45
2022-12-31T23:49:06.892Z,84.53
2022-12-31T23:51:33.529Z,94.03
2022-12-31T23:54:00.935Z,107.40
2022-12-31T23:56:27.570Z,95.38
2022-12-31T23:58:55.714Z,101.07
